sensor_id;sensor_type;location;lat;lon;timestamp;P1;durP1;ratioP1;P2;durP2;ratioP2
13269;SDS011;6703;51.994;7.570;2023-02-22T00:00:37;4.25;;;1.50;;
13269;SDS011;6703;51.994;7.570;2023-02-22T00:03:10;1.98;;;1.85;;
13269;SDS011;6703;51.994;7.570;2023-02-22T00:05:41;3.47;;;2.50;;
13269;SDS011;6703;51.994;7.570;2023-02-22T00:08:13;6.00;;;2.72;;
13269;SDS011;6703;51.994;7.570;2023-02-22T00:10:41;8.50;;;0.70;;
13269;SDS011;6703;51.994;7.570;2023-02-22T00:13:10;0.82;;;0.68;;
13269;SDS011;6703;51.994;7.570;2023-02-22T00:15:41;0.60;;;0.60;;
13269;SDS011;6703;51.994;7.570;2023-02-22T00:18:11;0.20;;;0.20;;
13269;SDS011;6703;51.994;7.570;2023-02-22T00:20:39;2.28;;;1.83;;
13269;SDS011;6703;51.994;7.570;2023-02-22T00:23:12;1.35;;;1.25;;
13269;SDS011;6703;51.994;7.570;2023-02-22T00:25:41;1.73;;;1.38;;
13269;SDS011;6703;51.994;7.570;2023-02-22T00:28:08;0.80;;;0.60;;
13269;SDS011;6703;51.994;7.570;2023-02-22T00:30:36;0.98;;;0.98;;
13269;SDS011;6703;51.994;7.570;2023-02-22T00:33:05;0.90;;;0.70;;
13269;SDS011;6703;51.994;7.570;2023-02-22T00:35:33;1.85;;;1.75;;
13269;SDS011;6703;51.994;7.570;2023-02-22T00:38:01;8.90;;;2.03;;
13269;SDS011;6703;51.994;7.570;2023-02-22T00:40:30;4.70;;;3.60;;
13269;SDS011;6703;51.994;7.570;2023-02-22T00:42:59;0.30;;;0.30;;
13269;SDS011;6703;51.994;7.570;2023-02-22T00:45:29;0.88;;;0.88;;
13269;SDS011;6703;51.994;7.570;2023-02-22T00:47:57;1.40;;;1.30;;
13269;SDS011;6703;51.994;7.570;2023-02-22T00:50:27;2.03;;;1.93;;
13269;SDS011;6703;51.994;7.570;2023-02-22T00:52:57;1.00;;;1.00;;
13269;SDS011;6703;51.994;7.570;2023-02-22T00:55:27;0.70;;;0.55;;
13269;SDS011;6703;51.994;7.570;2023-02-22T00:57:56;0.22;;;0.22;;
13269;SDS011;6703;51.994;7.570;2023-02-22T01:00:25;1.30;;;1.00;;
13269;SDS011;6703;51.994;7.570;2023-02-22T01:02:54;0.45;;;0.45;;
13269;SDS011;6703;51.994;7.570;2023-02-22T01:05:24;1.50;;;1.00;;
13269;SDS011;6703;51.994;7.570;2023-02-22T01:07:55;2.53;;;1.52;;
13269;SDS011;6703;51.994;7.570;2023-02-22T01:10:24;1.88;;;1.65;;
13269;SDS011;6703;51.994;7.570;2023-02-22T01:12:54;5.50;;;1.50;;
13269;SDS011;6703;51.994;7.570;2023-02-22T01:15:23;12.10;;;1.67;;
13269;SDS011;6703;51.994;7.570;2023-02-22T01:17:52;1.52;;;1.42;;
13269;SDS011;6703;51.994;7.570;2023-02-22T01:20:21;1.00;;;0.93;;
13269;SDS011;6703;51.994;7.570;2023-02-22T01:22:51;0.88;;;0.88;;
13269;SDS011;6703;51.994;7.570;2023-02-22T01:25:25;3.10;;;2.00;;
13269;SDS011;6703;51.994;7.570;2023-02-22T01:27:54;4.30;;;2.27;;
13269;SDS011;6703;51.994;7.570;2023-02-22T01:30:24;3.60;;;0.77;;
13269;SDS011;6703;51.994;7.570;2023-02-22T01:32:53;1.60;;;1.30;;
13269;SDS011;6703;51.994;7.570;2023-02-22T01:35:22;0.85;;;0.85;;
13269;SDS011;6703;51.994;7.570;2023-02-22T01:37:52;0.50;;;0.50;;
13269;SDS011;6703;51.994;7.570;2023-02-22T01:40:22;1.35;;;1.25;;
13269;SDS011;6703;51.994;7.570;2023-02-22T01:42:52;0.90;;;0.90;;
13269;SDS011;6703;51.994;7.570;2023-02-22T01:45:42;1.50;;;1.42;;
13269;SDS011;6703;51.994;7.570;2023-02-22T01:48:14;5.57;;;1.88;;
13269;SDS011;6703;51.994;7.570;2023-02-22T01:50:47;5.70;;;2.67;;
13269;SDS011;6703;51.994;7.570;2023-02-22T01:53:18;0.80;;;0.70;;
13269;SDS011;6703;51.994;7.570;2023-02-22T01:55:49;0.40;;;0.40;;
13269;SDS011;6703;51.994;7.570;2023-02-22T01:58:17;0.50;;;0.50;;
13269;SDS011;6703;51.994;7.570;2023-02-22T02:00:46;4.80;;;1.45;;
13269;SDS011;6703;51.994;7.570;2023-02-22T02:03:14;4.28;;;1.67;;
13269;SDS011;6703;51.994;7.570;2023-02-22T02:05:45;2.60;;;1.93;;
13269;SDS011;6703;51.994;7.570;2023-02-22T02:08:15;0.40;;;0.40;;
13269;SDS011;6703;51.994;7.570;2023-02-22T02:10:46;16.60;;;2.40;;
13269;SDS011;6703;51.994;7.570;2023-02-22T02:13:16;0.70;;;0.70;;
13269;SDS011;6703;51.994;7.570;2023-02-22T02:15:44;1.27;;;1.13;;
13269;SDS011;6703;51.994;7.570;2023-02-22T02:18:11;0.73;;;0.73;;
13269;SDS011;6703;51.994;7.570;2023-02-22T02:20:42;3.92;;;1.58;;
13269;SDS011;6703;51.994;7.570;2023-02-22T02:23:20;0.30;;;0.30;;
13269;SDS011;6703;51.994;7.570;2023-02-22T02:26:02;12.68;;;2.65;;
13269;SDS011;6703;51.994;7.570;2023-02-22T02:28:42;3.20;;;2.63;;
13269;SDS011;6703;51.994;7.570;2023-02-22T02:31:27;2.00;;;1.85;;
13269;SDS011;6703;51.994;7.570;2023-02-22T02:34:08;2.22;;;1.75;;
13269;SDS011;6703;51.994;7.570;2023-02-22T02:36:42;1.95;;;1.85;;
13269;SDS011;6703;51.994;7.570;2023-02-22T02:39:15;11.55;;;3.25;;
13269;SDS011;6703;51.994;7.570;2023-02-22T02:41:54;2.00;;;1.20;;
13269;SDS011;6703;51.994;7.570;2023-02-22T02:44:25;1.73;;;1.63;;
13269;SDS011;6703;51.994;7.570;2023-02-22T02:46:55;3.22;;;1.67;;
13269;SDS011;6703;51.994;7.570;2023-02-22T02:49:29;1.70;;;1.60;;
13269;SDS011;6703;51.994;7.570;2023-02-22T02:51:58;1.95;;;1.27;;
13269;SDS011;6703;51.994;7.570;2023-02-22T02:54:27;1.60;;;1.20;;
13269;SDS011;6703;51.994;7.570;2023-02-22T02:56:56;2.00;;;0.70;;
13269;SDS011;6703;51.994;7.570;2023-02-22T02:59:25;2.22;;;2.03;;
13269;SDS011;6703;51.994;7.570;2023-02-22T03:01:58;1.90;;;0.95;;
13269;SDS011;6703;51.994;7.570;2023-02-22T03:04:41;0.73;;;0.73;;
13269;SDS011;6703;51.994;7.570;2023-02-22T03:07:24;1.73;;;1.63;;
13269;SDS011;6703;51.994;7.570;2023-02-22T03:09:58;3.67;;;1.17;;
13269;SDS011;6703;51.994;7.570;2023-02-22T03:12:41;1.00;;;1.00;;
13269;SDS011;6703;51.994;7.570;2023-02-22T03:15:18;1.60;;;1.30;;
13269;SDS011;6703;51.994;7.570;2023-02-22T03:17:50;0.60;;;0.50;;
13269;SDS011;6703;51.994;7.570;2023-02-22T03:20:23;0.75;;;0.75;;
13269;SDS011;6703;51.994;7.570;2023-02-22T03:22:57;3.50;;;2.60;;
13269;SDS011;6703;51.994;7.570;2023-02-22T03:25:29;1.58;;;1.08;;
13269;SDS011;6703;51.994;7.570;2023-02-22T03:28:01;0.63;;;0.63;;
13269;SDS011;6703;51.994;7.570;2023-02-22T03:30:33;4.10;;;2.53;;
13269;SDS011;6703;51.994;7.570;2023-02-22T03:33:05;0.70;;;0.70;;
13269;SDS011;6703;51.994;7.570;2023-02-22T03:35:38;4.07;;;2.22;;
13269;SDS011;6703;51.994;7.570;2023-02-22T03:38:08;4.33;;;2.13;;
13269;SDS011;6703;51.994;7.570;2023-02-22T03:40:40;1.30;;;1.20;;
13269;SDS011;6703;51.994;7.570;2023-02-22T03:43:11;1.63;;;1.52;;
13269;SDS011;6703;51.994;7.570;2023-02-22T03:45:40;1.02;;;1.02;;
13269;SDS011;6703;51.994;7.570;2023-02-22T03:48:13;0.90;;;0.90;;
13269;SDS011;6703;51.994;7.570;2023-02-22T03:50:45;0.60;;;0.38;;
13269;SDS011;6703;51.994;7.570;2023-02-22T03:53:15;4.33;;;1.40;;
13269;SDS011;6703;51.994;7.570;2023-02-22T03:55:44;4.60;;;1.30;;
13269;SDS011;6703;51.994;7.570;2023-02-22T03:58:16;1.90;;;1.27;;
13269;SDS011;6703;51.994;7.570;2023-02-22T04:00:45;2.63;;;1.83;;
13269;SDS011;6703;51.994;7.570;2023-02-22T04:03:13;0.70;;;0.70;;
13269;SDS011;6703;51.994;7.570;2023-02-22T04:05:43;3.50;;;1.20;;
13269;SDS011;6703;51.994;7.570;2023-02-22T04:08:12;5.00;;;1.70;;
13269;SDS011;6703;51.994;7.570;2023-02-22T04:10:39;0.60;;;0.60;;
13269;SDS011;6703;51.994;7.570;2023-02-22T04:13:07;0.22;;;0.22;;
13269;SDS011;6703;51.994;7.570;2023-02-22T04:15:35;2.10;;;1.95;;
13269;SDS011;6703;51.994;7.570;2023-02-22T04:18:04;6.50;;;1.80;;
13269;SDS011;6703;51.994;7.570;2023-02-22T04:20:32;0.80;;;0.80;;
13269;SDS011;6703;51.994;7.570;2023-02-22T04:23:00;0.30;;;0.30;;
13269;SDS011;6703;51.994;7.570;2023-02-22T04:25:29;0.30;;;0.30;;
13269;SDS011;6703;51.994;7.570;2023-02-22T04:27:56;2.80;;;1.40;;
13269;SDS011;6703;51.994;7.570;2023-02-22T04:30:24;2.80;;;1.03;;
13269;SDS011;6703;51.994;7.570;2023-02-22T04:32:53;0.50;;;0.50;;
13269;SDS011;6703;51.994;7.570;2023-02-22T04:35:21;0.60;;;0.60;;
13269;SDS011;6703;51.994;7.570;2023-02-22T04:37:49;0.47;;;0.47;;
13269;SDS011;6703;51.994;7.570;2023-02-22T04:40:17;2.10;;;1.10;;
13269;SDS011;6703;51.994;7.570;2023-02-22T04:42:46;1.27;;;0.88;;
13269;SDS011;6703;51.994;7.570;2023-02-22T04:45:14;0.90;;;0.90;;
13269;SDS011;6703;51.994;7.570;2023-02-22T04:47:42;0.40;;;0.40;;
13269;SDS011;6703;51.994;7.570;2023-02-22T04:50:10;0.50;;;0.50;;
13269;SDS011;6703;51.994;7.570;2023-02-22T04:52:38;1.60;;;0.90;;
13269;SDS011;6703;51.994;7.570;2023-02-22T04:55:06;0.70;;;0.50;;
13269;SDS011;6703;51.994;7.570;2023-02-22T04:57:35;0.73;;;0.73;;
13269;SDS011;6703;51.994;7.570;2023-02-22T05:00:04;0.70;;;0.70;;
13269;SDS011;6703;51.994;7.570;2023-02-22T05:02:36;0.50;;;0.50;;
13269;SDS011;6703;51.994;7.570;2023-02-22T05:05:05;1.50;;;1.10;;
13269;SDS011;6703;51.994;7.570;2023-02-22T05:07:33;1.53;;;0.67;;
13269;SDS011;6703;51.994;7.570;2023-02-22T05:10:01;1.48;;;0.43;;
13269;SDS011;6703;51.994;7.570;2023-02-22T05:12:28;6.60;;;0.68;;
13269;SDS011;6703;51.994;7.570;2023-02-22T05:14:56;0.88;;;0.45;;
13269;SDS011;6703;51.994;7.570;2023-02-22T05:17:25;0.40;;;0.40;;
13269;SDS011;6703;51.994;7.570;2023-02-22T05:19:53;0.20;;;0.20;;
13269;SDS011;6703;51.994;7.570;2023-02-22T05:22:21;0.65;;;0.65;;
13269;SDS011;6703;51.994;7.570;2023-02-22T05:24:49;1.48;;;1.42;;
13269;SDS011;6703;51.994;7.570;2023-02-22T05:27:17;0.30;;;0.30;;
13269;SDS011;6703;51.994;7.570;2023-02-22T05:29:45;0.22;;;0.22;;
13269;SDS011;6703;51.994;7.570;2023-02-22T05:32:13;0.73;;;0.73;;
13269;SDS011;6703;51.994;7.570;2023-02-22T05:34:42;0.55;;;0.55;;
13269;SDS011;6703;51.994;7.570;2023-02-22T05:37:10;0.25;;;0.25;;
13269;SDS011;6703;51.994;7.570;2023-02-22T05:39:38;0.30;;;0.30;;
13269;SDS011;6703;51.994;7.570;2023-02-22T05:42:06;0.65;;;0.65;;
13269;SDS011;6703;51.994;7.570;2023-02-22T05:44:33;0.13;;;0.13;;
13269;SDS011;6703;51.994;7.570;2023-02-22T05:47:01;1.00;;;1.00;;
13269;SDS011;6703;51.994;7.570;2023-02-22T05:49:29;0.50;;;0.50;;
13269;SDS011;6703;51.994;7.570;2023-02-22T05:51:58;0.90;;;0.60;;
13269;SDS011;6703;51.994;7.570;2023-02-22T05:54:26;1.35;;;1.25;;
13269;SDS011;6703;51.994;7.570;2023-02-22T05:56:54;0.22;;;0.22;;
13269;SDS011;6703;51.994;7.570;2023-02-22T05:59:21;1.80;;;1.27;;
13269;SDS011;6703;51.994;7.570;2023-02-22T06:01:49;0.30;;;0.30;;
13269;SDS011;6703;51.994;7.570;2023-02-22T06:04:17;1.40;;;1.30;;
13269;SDS011;6703;51.994;7.570;2023-02-22T06:06:45;0.50;;;0.50;;
13269;SDS011;6703;51.994;7.570;2023-02-22T06:09:14;0.85;;;0.85;;
13269;SDS011;6703;51.994;7.570;2023-02-22T06:11:42;0.25;;;0.25;;
13269;SDS011;6703;51.994;7.570;2023-02-22T06:14:09;0.77;;;0.77;;
13269;SDS011;6703;51.994;7.570;2023-02-22T06:16:37;0.40;;;0.40;;
13269;SDS011;6703;51.994;7.570;2023-02-22T06:19:05;3.50;;;1.40;;
13269;SDS011;6703;51.994;7.570;2023-02-22T06:21:32;0.17;;;0.17;;
13269;SDS011;6703;51.994;7.570;2023-02-22T06:24:00;1.30;;;1.20;;
13269;SDS011;6703;51.994;7.570;2023-02-22T06:26:31;0.25;;;0.25;;
13269;SDS011;6703;51.994;7.570;2023-02-22T06:28:58;2.00;;;1.00;;
13269;SDS011;6703;51.994;7.570;2023-02-22T06:31:27;0.47;;;0.47;;
13269;SDS011;6703;51.994;7.570;2023-02-22T06:33:54;0.20;;;0.20;;
13269;SDS011;6703;51.994;7.570;2023-02-22T06:36:22;0.08;;;0.08;;
13269;SDS011;6703;51.994;7.570;2023-02-22T06:38:50;0.10;;;0.10;;
13269;SDS011;6703;51.994;7.570;2023-02-22T06:41:18;5.10;;;1.00;;
13269;SDS011;6703;51.994;7.570;2023-02-22T06:43:47;1.20;;;0.82;;
13269;SDS011;6703;51.994;7.570;2023-02-22T06:46:15;0.30;;;0.30;;
13269;SDS011;6703;51.994;7.570;2023-02-22T06:48:43;1.10;;;0.90;;
13269;SDS011;6703;51.994;7.570;2023-02-22T06:51:10;0.05;;;0.05;;
13269;SDS011;6703;51.994;7.570;2023-02-22T06:53:38;0.28;;;0.28;;
13269;SDS011;6703;51.994;7.570;2023-02-22T06:56:06;0.00;;;0.00;;
13269;SDS011;6703;51.994;7.570;2023-02-22T06:58:34;0.70;;;0.70;;
13269;SDS011;6703;51.994;7.570;2023-02-22T07:01:03;1.15;;;0.95;;
13269;SDS011;6703;51.994;7.570;2023-02-22T07:03:33;2.60;;;0.80;;
13269;SDS011;6703;51.994;7.570;2023-02-22T07:06:01;0.20;;;0.20;;
13269;SDS011;6703;51.994;7.570;2023-02-22T07:08:29;0.80;;;0.40;;
13269;SDS011;6703;51.994;7.570;2023-02-22T07:10:57;1.80;;;0.70;;
13269;SDS011;6703;51.994;7.570;2023-02-22T07:13:25;0.47;;;0.43;;
13269;SDS011;6703;51.994;7.570;2023-02-22T07:15:52;0.35;;;0.35;;
13269;SDS011;6703;51.994;7.570;2023-02-22T07:18:22;0.40;;;0.38;;
13269;SDS011;6703;51.994;7.570;2023-02-22T07:20:52;1.00;;;0.75;;
13269;SDS011;6703;51.994;7.570;2023-02-22T07:23:20;0.20;;;0.13;;
13269;SDS011;6703;51.994;7.570;2023-02-22T07:25:49;0.50;;;0.50;;
13269;SDS011;6703;51.994;7.570;2023-02-22T07:28:17;0.40;;;0.40;;
13269;SDS011;6703;51.994;7.570;2023-02-22T07:30:45;0.85;;;0.85;;
13269;SDS011;6703;51.994;7.570;2023-02-22T07:33:13;1.05;;;0.93;;
13269;SDS011;6703;51.994;7.570;2023-02-22T07:35:44;0.17;;;0.17;;
13269;SDS011;6703;51.994;7.570;2023-02-22T07:38:12;0.13;;;0.13;;
13269;SDS011;6703;51.994;7.570;2023-02-22T07:40:41;2.40;;;0.80;;
13269;SDS011;6703;51.994;7.570;2023-02-22T07:43:13;0.10;;;0.10;;
13269;SDS011;6703;51.994;7.570;2023-02-22T07:45:42;0.00;;;0.00;;
13269;SDS011;6703;51.994;7.570;2023-02-22T07:48:10;0.50;;;0.50;;
13269;SDS011;6703;51.994;7.570;2023-02-22T07:50:41;2.60;;;0.80;;
13269;SDS011;6703;51.994;7.570;2023-02-22T07:53:11;3.72;;;0.65;;
13269;SDS011;6703;51.994;7.570;2023-02-22T07:55:41;0.20;;;0.20;;
13269;SDS011;6703;51.994;7.570;2023-02-22T07:58:12;0.28;;;0.28;;
13269;SDS011;6703;51.994;7.570;2023-02-22T08:00:41;0.40;;;0.40;;
13269;SDS011;6703;51.994;7.570;2023-02-22T08:03:10;0.75;;;0.50;;
13269;SDS011;6703;51.994;7.570;2023-02-22T08:05:40;0.00;;;0.00;;
13269;SDS011;6703;51.994;7.570;2023-02-22T08:08:13;0.20;;;0.20;;
13269;SDS011;6703;51.994;7.570;2023-02-22T08:10:45;2.05;;;1.08;;
13269;SDS011;6703;51.994;7.570;2023-02-22T08:13:13;0.20;;;0.20;;
13269;SDS011;6703;51.994;7.570;2023-02-22T08:15:41;0.38;;;0.38;;
13269;SDS011;6703;51.994;7.570;2023-02-22T08:18:11;0.60;;;0.50;;
13269;SDS011;6703;51.994;7.570;2023-02-22T08:20:40;0.70;;;0.60;;
13269;SDS011;6703;51.994;7.570;2023-02-22T08:23:10;2.00;;;1.40;;
13269;SDS011;6703;51.994;7.570;2023-02-22T08:25:40;0.40;;;0.40;;
13269;SDS011;6703;51.994;7.570;2023-02-22T08:28:08;0.38;;;0.38;;
13269;SDS011;6703;51.994;7.570;2023-02-22T08:30:38;0.50;;;0.50;;
13269;SDS011;6703;51.994;7.570;2023-02-22T08:33:08;0.68;;;0.68;;
13269;SDS011;6703;51.994;7.570;2023-02-22T08:35:39;3.10;;;0.90;;
13269;SDS011;6703;51.994;7.570;2023-02-22T08:38:13;1.20;;;1.10;;
13269;SDS011;6703;51.994;7.570;2023-02-22T08:40:46;0.60;;;0.60;;
13269;SDS011;6703;51.994;7.570;2023-02-22T08:43:14;1.50;;;1.02;;
13269;SDS011;6703;51.994;7.570;2023-02-22T08:45:43;0.00;;;0.00;;
13269;SDS011;6703;51.994;7.570;2023-02-22T08:48:11;0.90;;;0.90;;
13269;SDS011;6703;51.994;7.570;2023-02-22T08:50:40;6.90;;;1.30;;
13269;SDS011;6703;51.994;7.570;2023-02-22T08:53:10;0.00;;;0.00;;
13269;SDS011;6703;51.994;7.570;2023-02-22T08:55:39;0.30;;;0.30;;
13269;SDS011;6703;51.994;7.570;2023-02-22T08:58:08;1.75;;;0.40;;
13269;SDS011;6703;51.994;7.570;2023-02-22T09:00:38;0.10;;;0.10;;
13269;SDS011;6703;51.994;7.570;2023-02-22T09:03:07;0.70;;;0.70;;
13269;SDS011;6703;51.994;7.570;2023-02-22T09:05:37;1.10;;;1.10;;
13269;SDS011;6703;51.994;7.570;2023-02-22T09:08:04;0.60;;;0.60;;
13269;SDS011;6703;51.994;7.570;2023-02-22T09:10:33;0.45;;;0.45;;
13269;SDS011;6703;51.994;7.570;2023-02-22T09:13:01;0.30;;;0.30;;
13269;SDS011;6703;51.994;7.570;2023-02-22T09:15:32;0.10;;;0.10;;
13269;SDS011;6703;51.994;7.570;2023-02-22T09:18:02;0.10;;;0.10;;
13269;SDS011;6703;51.994;7.570;2023-02-22T09:20:30;0.50;;;0.50;;
13269;SDS011;6703;51.994;7.570;2023-02-22T09:22:57;0.40;;;0.40;;
13269;SDS011;6703;51.994;7.570;2023-02-22T09:25:28;6.85;;;2.15;;
13269;SDS011;6703;51.994;7.570;2023-02-22T09:27:56;0.60;;;0.60;;
13269;SDS011;6703;51.994;7.570;2023-02-22T09:30:24;0.20;;;0.20;;
13269;SDS011;6703;51.994;7.570;2023-02-22T09:32:59;2.65;;;1.15;;
13269;SDS011;6703;51.994;7.570;2023-02-22T09:35:28;0.68;;;0.38;;
13269;SDS011;6703;51.994;7.570;2023-02-22T09:37:57;7.80;;;1.08;;
13269;SDS011;6703;51.994;7.570;2023-02-22T09:40:27;0.20;;;0.20;;
13269;SDS011;6703;51.994;7.570;2023-02-22T09:43:08;0.25;;;0.25;;
13269;SDS011;6703;51.994;7.570;2023-02-22T09:45:47;0.20;;;0.20;;
13269;SDS011;6703;51.994;7.570;2023-02-22T09:48:22;1.20;;;1.10;;
13269;SDS011;6703;51.994;7.570;2023-02-22T09:50:51;1.70;;;0.50;;
13269;SDS011;6703;51.994;7.570;2023-02-22T09:53:22;0.28;;;0.28;;
13269;SDS011;6703;51.994;7.570;2023-02-22T09:55:55;1.00;;;0.80;;
13269;SDS011;6703;51.994;7.570;2023-02-22T09:58:27;2.40;;;0.80;;
13269;SDS011;6703;51.994;7.570;2023-02-22T10:01:02;2.53;;;0.85;;
13269;SDS011;6703;51.994;7.570;2023-02-22T10:03:44;0.13;;;0.13;;
13269;SDS011;6703;51.994;7.570;2023-02-22T10:06:16;1.05;;;1.05;;
13269;SDS011;6703;51.994;7.570;2023-02-22T10:08:46;0.70;;;0.70;;
13269;SDS011;6703;51.994;7.570;2023-02-22T10:11:18;0.30;;;0.30;;
13269;SDS011;6703;51.994;7.570;2023-02-22T10:13:57;1.90;;;1.20;;
13269;SDS011;6703;51.994;7.570;2023-02-22T10:16:28;5.50;;;0.70;;
13269;SDS011;6703;51.994;7.570;2023-02-22T10:19:08;0.00;;;0.00;;
13269;SDS011;6703;51.994;7.570;2023-02-22T10:21:45;0.73;;;0.73;;
13269;SDS011;6703;51.994;7.570;2023-02-22T10:24:27;0.90;;;0.60;;
13269;SDS011;6703;51.994;7.570;2023-02-22T10:27:03;0.73;;;0.73;;
13269;SDS011;6703;51.994;7.570;2023-02-22T10:29:35;0.50;;;0.40;;
13269;SDS011;6703;51.994;7.570;2023-02-22T10:32:10;0.30;;;0.30;;
13269;SDS011;6703;51.994;7.570;2023-02-22T10:34:44;0.50;;;0.50;;
13269;SDS011;6703;51.994;7.570;2023-02-22T10:37:17;0.40;;;0.40;;
13269;SDS011;6703;51.994;7.570;2023-02-22T10:39:50;0.17;;;0.17;;
13269;SDS011;6703;51.994;7.570;2023-02-22T10:42:21;0.00;;;0.00;;
13269;SDS011;6703;51.994;7.570;2023-02-22T10:44:52;0.52;;;0.52;;
13269;SDS011;6703;51.994;7.570;2023-02-22T10:47:19;0.00;;;0.00;;
13269;SDS011;6703;51.994;7.570;2023-02-22T10:49:49;0.40;;;0.35;;
13269;SDS011;6703;51.994;7.570;2023-02-22T10:52:21;2.35;;;1.67;;
13269;SDS011;6703;51.994;7.570;2023-02-22T10:54:53;0.08;;;0.08;;
13269;SDS011;6703;51.994;7.570;2023-02-22T10:57:40;0.60;;;0.60;;
13269;SDS011;6703;51.994;7.570;2023-02-22T11:00:12;0.00;;;0.00;;
13269;SDS011;6703;51.994;7.570;2023-02-22T11:02:49;0.80;;;0.80;;
13269;SDS011;6703;51.994;7.570;2023-02-22T11:05:31;0.40;;;0.40;;
13269;SDS011;6703;51.994;7.570;2023-02-22T11:08:15;0.10;;;0.10;;
13269;SDS011;6703;51.994;7.570;2023-02-22T11:10:49;0.30;;;0.30;;
13269;SDS011;6703;51.994;7.570;2023-02-22T11:13:18;0.10;;;0.10;;
13269;SDS011;6703;51.994;7.570;2023-02-22T11:15:52;0.08;;;0.08;;
13269;SDS011;6703;51.994;7.570;2023-02-22T11:18:21;0.10;;;0.10;;
13269;SDS011;6703;51.994;7.570;2023-02-22T11:20:59;0.70;;;0.70;;
13269;SDS011;6703;51.994;7.570;2023-02-22T11:23:29;1.40;;;0.60;;
13269;SDS011;6703;51.994;7.570;2023-02-22T11:26:02;0.25;;;0.25;;
13269;SDS011;6703;51.994;7.570;2023-02-22T11:28:32;0.15;;;0.15;;
13269;SDS011;6703;51.994;7.570;2023-02-22T11:31:11;0.00;;;0.00;;
13269;SDS011;6703;51.994;7.570;2023-02-22T11:33:47;1.10;;;0.80;;
13269;SDS011;6703;51.994;7.570;2023-02-22T11:36:30;0.60;;;0.60;;
13269;SDS011;6703;51.994;7.570;2023-02-22T11:39:03;0.00;;;0.00;;
13269;SDS011;6703;51.994;7.570;2023-02-22T11:41:37;12.20;;;1.00;;
13269;SDS011;6703;51.994;7.570;2023-02-22T11:44:12;0.22;;;0.22;;
13269;SDS011;6703;51.994;7.570;2023-02-22T11:46:47;0.10;;;0.10;;
13269;SDS011;6703;51.994;7.570;2023-02-22T11:49:15;0.10;;;0.10;;
13269;SDS011;6703;51.994;7.570;2023-02-22T11:51:52;3.55;;;1.30;;
13269;SDS011;6703;51.994;7.570;2023-02-22T11:54:43;1.15;;;0.55;;
13269;SDS011;6703;51.994;7.570;2023-02-22T11:57:20;0.55;;;0.55;;
13269;SDS011;6703;51.994;7.570;2023-02-22T11:59:59;0.47;;;0.47;;
13269;SDS011;6703;51.994;7.570;2023-02-22T12:02:43;0.20;;;0.20;;
13269;SDS011;6703;51.994;7.570;2023-02-22T12:05:25;0.30;;;0.22;;
13269;SDS011;6703;51.994;7.570;2023-02-22T12:08:09;0.93;;;0.88;;
13269;SDS011;6703;51.994;7.570;2023-02-22T12:10:49;0.00;;;0.00;;
13269;SDS011;6703;51.994;7.570;2023-02-22T12:13:24;0.40;;;0.40;;
13269;SDS011;6703;51.994;7.570;2023-02-22T12:16:00;0.70;;;0.60;;
13269;SDS011;6703;51.994;7.570;2023-02-22T12:18:34;0.28;;;0.28;;
13269;SDS011;6703;51.994;7.570;2023-02-22T12:21:06;0.10;;;0.10;;
13269;SDS011;6703;51.994;7.570;2023-02-22T12:23:39;0.60;;;0.40;;
13269;SDS011;6703;51.994;7.570;2023-02-22T12:26:12;0.50;;;0.43;;
13269;SDS011;6703;51.994;7.570;2023-02-22T12:28:42;0.70;;;0.70;;
13269;SDS011;6703;51.994;7.570;2023-02-22T12:31:15;0.20;;;0.20;;
13269;SDS011;6703;51.994;7.570;2023-02-22T12:33:48;0.10;;;0.10;;
13269;SDS011;6703;51.994;7.570;2023-02-22T12:36:21;0.60;;;0.50;;
13269;SDS011;6703;51.994;7.570;2023-02-22T12:38:56;2.80;;;0.50;;
13269;SDS011;6703;51.994;7.570;2023-02-22T12:41:33;0.00;;;0.00;;
13269;SDS011;6703;51.994;7.570;2023-02-22T12:44:05;0.35;;;0.35;;
13269;SDS011;6703;51.994;7.570;2023-02-22T12:46:36;0.08;;;0.08;;
13269;SDS011;6703;51.994;7.570;2023-02-22T12:49:07;2.20;;;0.30;;
13269;SDS011;6703;51.994;7.570;2023-02-22T12:51:41;0.60;;;0.60;;
13269;SDS011;6703;51.994;7.570;2023-02-22T12:54:15;0.00;;;0.00;;
13269;SDS011;6703;51.994;7.570;2023-02-22T12:56:48;0.50;;;0.37;;
13269;SDS011;6703;51.994;7.570;2023-02-22T12:59:20;0.00;;;0.00;;
13269;SDS011;6703;51.994;7.570;2023-02-22T13:01:50;0.10;;;0.10;;
13269;SDS011;6703;51.994;7.570;2023-02-22T13:04:21;0.40;;;0.40;;
13269;SDS011;6703;51.994;7.570;2023-02-22T13:06:52;0.40;;;0.40;;
13269;SDS011;6703;51.994;7.570;2023-02-22T13:09:36;0.28;;;0.28;;
13269;SDS011;6703;51.994;7.570;2023-02-22T13:12:10;0.00;;;0.00;;
13269;SDS011;6703;51.994;7.570;2023-02-22T13:14:46;1.10;;;0.90;;
13269;SDS011;6703;51.994;7.570;2023-02-22T13:17:21;0.03;;;0.03;;
13269;SDS011;6703;51.994;7.570;2023-02-22T13:19:52;0.00;;;0.00;;
13269;SDS011;6703;51.994;7.570;2023-02-22T13:22:23;0.20;;;0.20;;
13269;SDS011;6703;51.994;7.570;2023-02-22T13:24:58;0.40;;;0.40;;
13269;SDS011;6703;51.994;7.570;2023-02-22T13:27:29;2.30;;;1.15;;
13269;SDS011;6703;51.994;7.570;2023-02-22T13:30:02;1.20;;;0.90;;
13269;SDS011;6703;51.994;7.570;2023-02-22T13:32:33;0.00;;;0.00;;
13269;SDS011;6703;51.994;7.570;2023-02-22T13:35:13;0.10;;;0.10;;
13269;SDS011;6703;51.994;7.570;2023-02-22T13:37:54;0.10;;;0.10;;
13269;SDS011;6703;51.994;7.570;2023-02-22T13:40:41;0.00;;;0.00;;
13269;SDS011;6703;51.994;7.570;2023-02-22T13:43:20;0.08;;;0.08;;
13269;SDS011;6703;51.994;7.570;2023-02-22T13:45:58;11.25;;;3.53;;
13269;SDS011;6703;51.994;7.570;2023-02-22T13:48:53;15.20;;;6.25;;
13269;SDS011;6703;51.994;7.570;2023-02-22T13:51:33;17.73;;;6.47;;
13269;SDS011;6703;51.994;7.570;2023-02-22T13:54:07;13.70;;;6.47;;
13269;SDS011;6703;51.994;7.570;2023-02-22T13:56:42;12.65;;;5.88;;
13269;SDS011;6703;51.994;7.570;2023-02-22T13:59:20;16.48;;;6.28;;
13269;SDS011;6703;51.994;7.570;2023-02-22T14:01:50;16.65;;;6.55;;
13269;SDS011;6703;51.994;7.570;2023-02-22T14:10:34;14.63;;;6.65;;
13269;SDS011;6703;51.994;7.570;2023-02-22T14:13:05;12.65;;;6.10;;
13269;SDS011;6703;51.994;7.570;2023-02-22T14:15:34;16.23;;;6.38;;
13269;SDS011;6703;51.994;7.570;2023-02-22T14:18:02;16.33;;;6.70;;
13269;SDS011;6703;51.994;7.570;2023-02-22T14:20:31;124.28;;;16.08;;
13269;SDS011;6703;51.994;7.570;2023-02-22T14:25:53;18.35;;;6.18;;
13269;SDS011;6703;51.994;7.570;2023-02-22T14:28:39;15.32;;;5.93;;
13269;SDS011;6703;51.994;7.570;2023-02-22T14:31:12;15.27;;;6.10;;
13269;SDS011;6703;51.994;7.570;2023-02-22T14:34:03;14.95;;;6.20;;
13269;SDS011;6703;51.994;7.570;2023-02-22T14:36:34;14.20;;;6.28;;
13269;SDS011;6703;51.994;7.570;2023-02-22T14:39:07;14.85;;;6.38;;
13269;SDS011;6703;51.994;7.570;2023-02-22T14:41:39;16.98;;;6.18;;
13269;SDS011;6703;51.994;7.570;2023-02-22T14:44:12;17.02;;;6.05;;
13269;SDS011;6703;51.994;7.570;2023-02-22T14:46:42;14.27;;;6.28;;
13269;SDS011;6703;51.994;7.570;2023-02-22T14:49:16;14.68;;;6.20;;
13269;SDS011;6703;51.994;7.570;2023-02-22T14:51:48;13.90;;;6.53;;
13269;SDS011;6703;51.994;7.570;2023-02-22T14:54:23;17.20;;;6.43;;
13269;SDS011;6703;51.994;7.570;2023-02-22T14:56:54;16.02;;;6.50;;
13269;SDS011;6703;51.994;7.570;2023-02-22T14:59:45;13.98;;;5.93;;
13269;SDS011;6703;51.994;7.570;2023-02-22T15:02:17;16.33;;;6.40;;
13269;SDS011;6703;51.994;7.570;2023-02-22T15:04:49;14.52;;;5.90;;
13269;SDS011;6703;51.994;7.570;2023-02-22T15:07:24;12.57;;;6.32;;
13269;SDS011;6703;51.994;7.570;2023-02-22T15:10:06;14.73;;;6.40;;
13269;SDS011;6703;51.994;7.570;2023-02-22T15:12:53;14.70;;;5.97;;
13269;SDS011;6703;51.994;7.570;2023-02-22T15:15:36;13.07;;;5.55;;
13269;SDS011;6703;51.994;7.570;2023-02-22T15:18:09;14.70;;;6.47;;
13269;SDS011;6703;51.994;7.570;2023-02-22T15:20:42;15.75;;;6.28;;
13269;SDS011;6703;51.994;7.570;2023-02-22T15:23:13;11.80;;;5.97;;
13269;SDS011;6703;51.994;7.570;2023-02-22T15:25:45;15.30;;;6.15;;
13269;SDS011;6703;51.994;7.570;2023-02-22T15:28:14;17.90;;;6.15;;
13269;SDS011;6703;51.994;7.570;2023-02-22T15:30:44;11.15;;;5.47;;
13269;SDS011;6703;51.994;7.570;2023-02-22T15:33:14;13.82;;;5.68;;
13269;SDS011;6703;51.994;7.570;2023-02-22T15:35:43;12.23;;;5.82;;